METAR UND TAF INFORMATION
EFVA 200250Z AUTO 15015KT 9999 -RA OVC007 03/02 Q0996

 FLUGHAFENKARTE

 RUNWAY INFORMATION
Runway 16 Runway length 8727 ft Runway width 157 ft
Runway elevation 19 ft Runway displaced threshold 0 ft Runway heading 163
Runway 34 Runway length 8727 ft Runway width 157 ft
Runway elevation 11 ft Runway displaced threshold 525 ft Runway heading 343

 AIRPORT FREQUENCIES
Type ATIS Name ATIS Frequency 114.5 MHZ
Type TWR Name TWR Frequency 119.3 MHZ

 AIRPORT NEAR NAVIGATION AIDS
Type VOR-DME Name Vaasa Frequency 114500 KHZ